Time;durP1;ratioP1;P1;durP2;ratioP2;P2;SDS_P1;SDS_P2;PMS_P1;PMS_P2;Temp;Humidity;BMP_temperature;BMP_pressure;BME280_temperature;BME280_humidity;BME280_pressure;Samples;Min_cycle;Max_cycle;Signal;HPM_P1;HPM_P2
2021/01/09 05:31:04;;;;;;;1.08;0.20;;;14.40;52.50;;;;;;6273990;22;20050;-87
2021/01/09 05:33:59;;;;;;;1.25;0.30;;;14.40;52.70;;;;;;6260434;22;20015;-80
2021/01/09 05:36:28;;;;;;;3.80;0.25;;;14.40;52.00;;;;;;6309336;22;20034;-85
2021/01/09 05:42:45;;;;;;;4.95;0.47;;;14.40;51.00;;;;;;6307522;22;20026;-82
2021/01/09 05:45:25;;;;;;;4.93;0.82;;;14.30;51.80;;;;;;6284635;22;20022;-82
2021/01/09 05:47:52;;;;;;;6.28;0.52;;;14.40;52.50;;;;;;6257237;22;20015;-79
2021/01/09 05:50:48;;;;;;;3.13;0.52;;;14.40;52.80;;;;;;6309761;22;20022;-81
2021/01/09 05:53:42;;;;;;;5.72;0.60;;;14.50;53.10;;;;;;6254405;22;20034;-81
2021/01/09 05:56:27;;;;;;;10.07;0.90;;;14.50;53.50;;;;;;6256587;22;20460;-83
2021/01/09 05:59:17;;;;;;;6.65;1.35;;;14.70;54.30;;;;;;6256643;22;20301;-83
2021/01/09 06:01:47;;;;;;;13.10;1.13;;;14.80;54.40;;;;;;6256737;22;20033;-80
2021/01/09 06:04:20;;;;;;;10.15;0.52;;;14.80;54.30;;;;;;6256571;22;20434;-81
2021/01/09 06:06:56;;;;;;;11.00;1.15;;;14.90;55.20;;;;;;6293025;22;20078;-88
2021/01/09 06:09:32;;;;;;;5.65;0.95;;;15.00;55.50;;;;;;6282548;22;20026;-82
2021/01/09 06:12:05;;;;;;;9.02;0.40;;;15.10;55.20;;;;;;6282243;22;20007;-85
2021/01/09 06:14:34;;;;;;;7.22;0.85;;;15.20;55.10;;;;;;6282300;22;20011;-81
2021/01/09 06:17:00;;;;;;;8.73;1.02;;;15.30;55.40;;;;;;6282149;22;20042;-84
2021/01/09 06:19:27;;;;;;;8.15;0.85;;;15.30;55.50;;;;;;6257158;22;20045;-83
2021/01/09 06:21:53;;;;;;;7.57;1.42;;;15.40;55.40;;;;;;6256799;22;20012;-84
2021/01/09 06:24:27;;;;;;;5.03;0.63;;;15.40;55.10;;;;;;6256646;22;20015;-84
2021/01/09 06:27:03;;;;;;;;;;;15.40;55.00;;;;;;6256599;22;20011;-88
2021/01/09 06:29:37;;;;;;;11.43;0.73;;;15.40;54.90;;;;;;6281673;22;19915;-81
2021/01/09 06:32:08;;;;;;;9.82;0.93;;;15.40;55.50;;;;;;6308271;22;20034;-79
2021/01/09 06:34:39;;;;;;;3.55;0.98;;;15.50;56.30;;;;;;6292445;22;20026;-81
2021/01/09 06:37:06;;;;;;;5.65;1.02;;;15.50;55.70;;;;;;6283814;22;20035;-84
2021/01/09 06:39:38;;;;;;;4.47;0.57;;;15.50;55.40;;;;;;6293948;22;20015;-83
2021/01/09 06:42:06;;;;;;;9.45;0.68;;;15.50;55.40;;;;;;6321616;22;20400;-86
2021/01/09 06:44:32;;;;;;;7.85;1.05;;;15.50;55.80;;;;;;6310901;22;20015;-83
2021/01/09 06:46:58;;;;;;;4.32;0.75;;;15.50;55.90;;;;;;6294837;22;20018;-83
2021/01/09 06:49:25;;;;;;;4.35;0.63;;;15.50;56.00;;;;;;6284272;22;20145;-83
2021/01/09 06:52:06;;;;;;;6.28;0.57;;;15.50;55.80;;;;;;6284683;22;20011;-82
2021/01/09 06:54:41;;;;;;;4.43;0.40;;;15.60;55.60;;;;;;6258820;22;20307;-84
2021/01/09 06:57:15;;;;;;;2.55;0.30;;;15.60;55.30;;;;;;6293891;22;20015;-86
2021/01/09 06:59:46;;;;;;;10.10;0.82;;;15.60;55.00;;;;;;6259247;22;20088;-84
2021/01/09 07:02:26;;;;;;;5.03;0.95;;;15.60;55.10;;;;;;6284527;22;20017;-84
2021/01/09 07:04:54;;;;;;;6.40;1.08;;;15.70;54.90;;;;;;6284280;22;20007;-85
2021/01/09 07:07:29;;;;;;;4.38;0.75;;;15.70;54.80;;;;;;6258016;22;20474;-82
2021/01/09 07:10:13;;;;;;;5.95;1.00;;;15.80;54.70;;;;;;6320966;22;20300;-84
2021/01/09 07:12:41;;;;;;;3.10;0.95;;;15.80;54.70;;;;;;6247336;23;20016;-84
2021/01/09 07:15:09;;;;;;;3.80;0.77;;;15.80;54.60;;;;;;6221418;23;20121;-84
2021/01/09 07:17:40;;;;;;;4.05;0.57;;;15.80;54.60;;;;;;6196173;23;20008;-81
2021/01/09 07:20:11;;;;;;;5.55;1.10;;;15.80;54.50;;;;;;6222084;23;20023;-81
2021/01/09 07:22:41;;;;;;;5.05;0.80;;;15.80;54.50;;;;;;6221748;23;20020;-81
2021/01/09 07:25:10;;;;;;;3.45;0.75;;;15.80;54.50;;;;;;6231926;23;20317;-83
2021/01/09 07:27:44;;;;;;;4.20;0.70;;;15.80;54.40;;;;;;6221089;23;20043;-83
2021/01/09 07:30:16;;;;;;;7.05;0.65;;;15.90;54.50;;;;;;6196302;23;20443;-84
2021/01/09 07:32:45;;;;;;;9.80;0.73;;;15.90;54.60;;;;;;6190290;23;20036;-83
2021/01/09 07:35:19;;;;;;;9.48;0.95;;;15.90;54.60;;;;;;6166202;23;20291;-83
2021/01/09 07:37:46;;;;;;;16.85;1.10;;;16.00;54.80;;;;;;6198390;23;20305;-83
2021/01/09 07:40:19;;;;;;;11.20;1.33;;;16.10;54.90;;;;;;6190646;23;20025;-78
2021/01/09 07:42:46;;;;;;;6.65;1.45;;;16.10;54.50;;;;;;6232959;22;20020;-76
2021/01/09 07:45:18;;;;;;;9.00;1.00;;;16.10;54.10;;;;;;6289645;22;20012;-76
2021/01/09 07:47:46;;;;;;;7.35;0.68;;;16.10;54.00;;;;;;6289382;22;20073;-81
2021/01/09 07:50:21;;;;;;;8.50;0.80;;;16.10;54.80;;;;;;6257916;22;20011;-79
2021/01/09 07:52:47;;;;;;;5.43;0.60;;;16.10;54.30;;;;;;6279089;22;20020;-79
2021/01/09 07:55:17;;;;;;;7.25;0.63;;;16.10;54.30;;;;;;6278711;22;20035;-79
2021/01/09 07:57:44;;;;;;;5.15;1.27;;;16.10;54.20;;;;;;6227173;22;20003;-79
2021/01/09 08:00:12;;;;;;;3.95;0.70;;;16.00;54.00;;;;;;6227372;22;20070;-80
2021/01/09 08:02:41;;;;;;;5.15;0.73;;;16.00;53.90;;;;;;6262868;22;20031;-80
2021/01/09 08:05:20;;;;;;;2.75;0.77;;;16.00;53.80;;;;;;6263265;22;20288;-79
2021/01/09 08:07:54;;;;;;;4.72;0.73;;;16.00;53.60;;;;;;6289044;22;20003;-80
2021/01/09 08:10:28;;;;;;;4.55;0.80;;;16.00;53.50;;;;;;6252648;22;20007;-81
2021/01/09 08:12:56;;;;;;;2.80;0.75;;;16.00;53.40;;;;;;6226976;22;20012;-79
2021/01/09 08:15:22;;;;;;;4.53;1.17;;;16.00;53.30;;;;;;6251953;22;20014;-80
2021/01/09 08:17:48;;;;;;;3.38;0.68;;;16.00;53.30;;;;;;6289623;22;20519;-80
2021/01/09 08:20:15;;;;;;;3.85;1.17;;;16.00;53.20;;;;;;6279287;22;20027;-79
2021/01/09 08:22:50;;;;;;;4.57;0.98;;;16.00;53.10;;;;;;6226723;22;20008;-81
2021/01/09 08:25:16;;;;;;;2.97;0.70;;;16.00;53.00;;;;;;6262817;22;20046;-79
2021/01/09 08:27:50;;;;;;;2.17;0.80;;;16.00;52.90;;;;;;6262861;22;20007;-82
2021/01/09 08:30:19;;;;;;;2.65;1.08;;;16.00;52.80;;;;;;6262232;22;20008;-80
2021/01/09 08:32:45;;;;;;;3.05;1.10;;;16.00;52.80;;;;;;6263390;22;20008;-81
2021/01/09 08:35:15;;;;;;;5.40;1.38;;;16.00;52.70;;;;;;6278570;22;20012;-85
2021/01/09 08:37:43;;;;;;;4.45;1.10;;;16.00;52.50;;;;;;6279079;22;20018;-82
2021/01/09 08:40:19;;;;;;;7.40;1.42;;;16.00;52.90;;;;;;6251992;22;20023;-83
2021/01/09 08:43:14;;;;;;;13.43;1.40;;;15.90;53.50;;;;;;6277913;22;20022;-82
2021/01/09 08:45:45;;;;;;;12.23;1.17;;;15.90;54.20;;;;;;6274533;22;20022;-82
2021/01/09 08:48:14;;;;;;;13.68;1.42;;;15.90;54.40;;;;;;6251884;22;20066;-80
2021/01/09 08:50:46;;;;;;;12.30;2.10;;;16.00;54.80;;;;;;6278087;22;20011;-78
2021/01/09 08:53:14;;;;;;;4.35;1.95;;;15.90;51.50;;;;;;6288977;22;20019;-78
2021/01/09 08:55:39;;;;;;;6.28;3.08;;;15.70;49.90;;;;;;6289562;22;20015;-78
2021/01/09 08:58:11;;;;;;;10.88;3.50;;;15.30;49.30;;;;;;6288512;22;20340;-81
2021/01/09 09:00:37;;;;;;;12.40;2.83;;;14.90;49.80;;;;;;6278801;22;20039;-81
2021/01/09 09:03:05;;;;;;;8.98;2.03;;;14.80;51.40;;;;;;6277427;22;20077;-83
2021/01/09 09:05:31;;;;;;;7.00;1.80;;;14.90;52.50;;;;;;6252218;22;20027;-83
2021/01/09 09:08:00;;;;;;;12.48;2.10;;;15.00;53.00;;;;;;6252169;22;20012;-82
2021/01/09 09:10:30;;;;;;;10.52;2.70;;;15.10;53.30;;;;;;6288258;22;20019;-82
2021/01/09 09:13:15;;;;;;;13.57;2.72;;;15.20;53.30;;;;;;6290142;22;20011;-82
2021/01/09 09:15:41;;;;;;;11.93;2.58;;;15.30;53.80;;;;;;6251634;22;20012;-83
2021/01/09 09:18:09;;;;;;;13.18;2.05;;;15.40;53.30;;;;;;6252840;22;20099;-82
2021/01/09 09:20:35;;;;;;;13.57;2.28;;;15.40;53.20;;;;;;6251953;22;20015;-83
2021/01/09 09:23:23;;;;;;;10.05;2.40;;;15.50;53.20;;;;;;6251868;22;20351;-82
2021/01/09 09:26:29;;;;;;;9.45;1.95;;;15.50;53.10;;;;;;6251181;22;20061;-83
2021/01/09 09:28:56;;;;;;;11.25;1.85;;;15.60;53.00;;;;;;6191929;22;20011;-84
2021/01/09 09:31:34;;;;;;;12.18;2.17;;;15.60;52.90;;;;;;6252080;22;20023;-82
2021/01/09 09:34:07;;;;;;;7.65;1.75;;;15.70;52.80;;;;;;6251776;22;20011;-83
2021/01/09 09:36:59;;;;;;;18.02;2.53;;;15.70;52.80;;;;;;6251300;22;20427;-83
2021/01/09 09:39:33;;;;;;;;;;;15.70;52.50;;;;;;6287458;22;20022;-83
2021/01/09 09:42:02;;;;;;;17.35;2.35;;;15.70;52.70;;;;;;6252318;22;19989;-83
2021/01/09 09:44:41;;;;;;;10.57;1.90;;;15.60;52.80;;;;;;6277495;22;20008;-96
2021/01/09 09:47:22;;;;;;;16.70;2.42;;;15.70;53.00;;;;;;6251261;22;20011;-84
2021/01/09 09:49:48;;;;;;;16.17;2.05;;;15.70;53.10;;;;;;6251741;22;20035;-84
2021/01/09 09:52:19;;;;;;;12.15;2.13;;;15.70;53.30;;;;;;6251543;22;20423;-83
2021/01/09 09:54:46;;;;;;;17.63;2.20;;;15.80;53.60;;;;;;6250875;22;20046;-84
2021/01/09 09:57:38;;;;;;;8.50;1.60;;;15.80;53.60;;;;;;6250957;22;20085;-83
2021/01/09 10:00:15;;;;;;;13.00;2.00;;;15.90;53.50;;;;;;6207437;22;20011;-81
2021/01/09 10:02:55;;;;;;;11.27;1.27;;;15.90;53.50;;;;;;6251464;22;20015;-83
2021/01/09 10:05:39;;;;;;;7.85;1.42;;;15.90;53.40;;;;;;6287094;22;20092;-83
2021/01/09 10:08:17;;;;;;;9.05;1.63;;;16.00;53.50;;;;;;6277596;22;20391;-83
2021/01/09 10:10:49;;;;;;;6.85;1.10;;;16.00;53.80;;;;;;6252171;22;20081;-84
2021/01/09 10:13:27;;;;;;;5.30;1.35;;;16.00;53.80;;;;;;6254425;22;20012;-83
2021/01/09 10:15:56;;;;;;;9.90;1.35;;;16.00;53.70;;;;;;6254046;22;20016;-83
2021/01/09 10:18:40;;;;;;;6.45;1.75;;;16.00;53.80;;;;;;6253705;22;20016;-84
2021/01/09 10:21:06;;;;;;;7.93;1.50;;;16.10;53.00;;;;;;6253212;22;20021;-83
2021/01/09 10:23:32;;;;;;;9.07;1.20;;;16.00;53.20;;;;;;6253517;22;20090;-83
2021/01/09 10:25:58;;;;;;;10.27;1.60;;;16.00;53.40;;;;;;6279539;22;20019;-84
2021/01/09 10:28:24;;;;;;;6.47;1.65;;;16.00;53.50;;;;;;6253338;22;20012;-84
2021/01/09 10:30:50;;;;;;;4.97;1.48;;;16.00;53.40;;;;;;6279246;22;20396;-84
2021/01/09 10:33:16;;;;;;;4.85;1.50;;;16.10;53.50;;;;;;6253471;22;20019;-84
2021/01/09 10:35:47;;;;;;;6.65;1.45;;;16.10;53.40;;;;;;6278637;22;20019;-84
2021/01/09 10:38:13;;;;;;;5.07;1.30;;;16.10;54.00;;;;;;6253179;22;20012;-83
2021/01/09 10:40:39;;;;;;;6.80;2.03;;;16.10;53.40;;;;;;6253862;22;20027;-84
2021/01/09 10:43:06;;;;;;;8.65;1.50;;;16.10;53.40;;;;;;6253451;22;20019;-83
2021/01/09 10:45:32;;;;;;;4.45;1.40;;;16.20;53.40;;;;;;6279302;22;20016;-84
2021/01/09 10:47:57;;;;;;;3.58;1.10;;;16.20;53.40;;;;;;6253526;22;20023;-82
2021/01/09 10:50:23;;;;;;;4.30;1.25;;;16.20;53.40;;;;;;6253072;22;20019;-84
2021/01/09 10:52:49;;;;;;;5.03;1.30;;;16.20;53.40;;;;;;6279400;22;20069;-83
2021/01/09 10:55:17;;;;;;;4.35;1.13;;;16.20;53.40;;;;;;6278790;22;20405;-83
2021/01/09 10:57:43;;;;;;;4.57;1.17;;;16.20;53.30;;;;;;6254077;22;20018;-84
2021/01/09 11:00:10;;;;;;;3.17;1.00;;;16.20;53.30;;;;;;6253243;22;20046;-83
2021/01/09 11:02:36;;;;;;;3.45;1.13;;;16.30;53.30;;;;;;6252912;22;20038;-83
2021/01/09 11:05:02;;;;;;;4.05;1.23;;;16.30;53.30;;;;;;6278559;22;20012;-83
2021/01/09 11:07:30;;;;;;;5.35;1.40;;;16.30;53.30;;;;;;6253153;22;20011;-84
2021/01/09 11:09:56;;;;;;;3.55;0.93;;;16.30;53.40;;;;;;6278876;22;20015;-83
2021/01/09 11:12:23;;;;;;;3.20;1.00;;;16.30;53.30;;;;;;6253929;22;20105;-83
2021/01/09 11:14:50;;;;;;;3.47;0.85;;;16.30;53.30;;;;;;6278269;22;20409;-83
2021/01/09 11:17:15;;;;;;;2.92;1.05;;;16.30;53.30;;;;;;6253229;22;20016;-83
2021/01/09 11:19:42;;;;;;;3.45;0.73;;;16.30;53.30;;;;;;6254153;22;20022;-83
2021/01/09 11:22:07;;;;;;;5.30;1.00;;;16.30;53.20;;;;;;6252640;22;20012;-84
2021/01/09 11:24:33;;;;;;;5.40;1.13;;;16.40;53.20;;;;;;6252943;22;20019;-83
2021/01/09 11:27:06;;;;;;;3.53;1.10;;;16.40;53.20;;;;;;6278212;22;20018;-85
2021/01/09 11:29:35;;;;;;;3.85;1.00;;;16.40;53.20;;;;;;6252789;22;20011;-86
2021/01/09 11:32:02;;;;;;;4.75;1.25;;;16.40;53.30;;;;;;6285618;22;20026;-81
2021/01/09 11:34:29;;;;;;;2.28;0.63;;;16.40;53.00;;;;;;6278014;22;20019;-78
2021/01/09 11:36:56;;;;;;;4.43;0.90;;;16.40;53.30;;;;;;6279182;22;20012;-82
2021/01/09 11:39:22;;;;;;;5.60;0.70;;;16.40;53.50;;;;;;6278380;22;20008;-82
2021/01/09 11:41:48;;;;;;;4.05;0.93;;;16.40;53.60;;;;;;6279113;22;20088;-80
2021/01/09 11:44:16;;;;;;;8.63;0.98;;;16.40;53.70;;;;;;6278658;22;20042;-80
2021/01/09 11:50:25;;;;;;;9.55;1.63;;;16.40;52.10;;;;;;6279276;22;20069;-84
2021/01/09 11:53:04;;;;;;;5.82;0.80;;;16.00;51.50;;;;;;6276944;22;20451;-81
2021/01/09 11:55:29;;;;;;;5.50;1.02;;;15.80;52.80;;;;;;6289998;22;20046;-81
2021/01/09 11:57:55;;;;;;;5.05;0.85;;;15.70;53.80;;;;;;6278841;22;20015;-83
2021/01/09 12:00:27;;;;;;;5.22;0.73;;;15.80;55.00;;;;;;6288765;22;20015;-86
2021/01/09 12:02:53;;;;;;;6.38;0.98;;;15.90;55.30;;;;;;6289007;22;20102;-84
2021/01/09 12:05:19;;;;;;;6.72;1.05;;;16.00;55.70;;;;;;6252801;22;20417;-84
2021/01/09 12:07:54;;;;;;;4.90;1.13;;;16.00;56.30;;;;;;6253900;22;20012;-86
2021/01/09 12:10:20;;;;;;;14.30;2.85;;;16.10;56.90;;;;;;6278951;22;20094;-83
2021/01/09 12:12:49;;;;;;;50.08;10.30;;;16.10;58.10;;;;;;6253227;22;20090;-86
2021/01/09 12:15:39;;;;;;;34.75;7.05;;;16.10;58.80;;;;;;6252913;22;20012;-83
2021/01/09 12:18:05;;;;;;;18.40;4.47;;;16.10;58.80;;;;;;6252026;22;20408;-83
2021/01/09 12:20:41;;;;;;;18.42;4.97;;;16.10;59.40;;;;;;6253484;22;20015;-85
2021/01/09 12:23:31;;;;;;;14.90;2.92;;;16.30;60.50;;;;;;6278484;22;20419;-85
2021/01/09 12:25:57;;;;;;;11.32;2.45;;;16.20;61.10;;;;;;6252025;22;20004;-84
2021/01/09 12:28:23;;;;;;;14.02;2.83;;;16.20;61.00;;;;;;6252293;22;20096;-80
2021/01/09 12:30:51;;;;;;;11.73;2.70;;;16.20;60.70;;;;;;6277997;22;20007;-81
2021/01/09 12:33:26;;;;;;;7.88;1.52;;;16.20;60.10;;;;;;6254214;22;20016;-85
2021/01/09 12:35:55;;;;;;;7.80;1.70;;;16.20;59.50;;;;;;6253082;22;20082;-82
2021/01/09 12:38:29;;;;;;;6.20;1.50;;;16.20;59.20;;;;;;6277805;22;20027;-80
2021/01/09 12:40:58;;;;;;;7.22;1.25;;;16.20;59.20;;;;;;6278266;22;20113;-86
2021/01/09 12:43:24;;;;;;;10.75;1.75;;;16.30;59.20;;;;;;6252026;22;20063;-83
2021/01/09 12:45:53;;;;;;;8.98;1.15;;;16.20;59.20;;;;;;6251539;22;20023;-87
2021/01/09 13:00:14;;;;;;;3.58;0.80;;;16.40;58.40;;;;;;6184798;23;20059;-88
2021/01/09 13:07:02;;;;;;;6.72;1.15;;;16.40;58.30;;;;;;6184937;23;20067;-85
2021/01/09 13:18:55;;;;;;;5.70;0.70;;;16.40;58.70;;;;;;6272493;22;20019;-90
2021/01/09 13:25:46;;;;;;;5.50;0.52;;;16.40;58.70;;;;;;6277062;22;20015;-87
2021/01/09 15:01:51;;;;;;;3.80;0.50;;;16.70;56.20;;;;;;6143985;23;20032;-85
2021/01/09 15:08:41;;;;;;;4.40;0.57;;;16.70;56.20;;;;;;6097578;23;20495;-88
2021/01/09 15:11:08;;;;;;;6.80;0.55;;;16.60;55.60;;;;;;6113927;23;20100;-85
2021/01/09 15:13:34;;;;;;;2.97;0.40;;;16.60;55.80;;;;;;6204480;23;20036;-81
2021/01/09 15:16:07;;;;;;;4.82;0.90;;;16.50;56.00;;;;;;6222805;23;20016;-85
2021/01/09 15:21:28;;;;;;;5.68;0.82;;;16.40;56.90;;;;;;6249072;23;20019;-83
2021/01/09 15:23:57;;;;;;;7.35;1.20;;;16.50;57.30;;;;;;6233016;23;20023;-85
2021/01/09 15:26:23;;;;;;;7.68;1.40;;;16.50;56.90;;;;;;6222497;23;20012;-83
2021/01/09 15:28:48;;;;;;;5.15;0.85;;;16.40;56.80;;;;;;6222282;23;20027;-84
2021/01/09 15:31:14;;;;;;;4.50;1.25;;;16.40;57.20;;;;;;6222554;23;20421;-85
2021/01/09 15:33:46;;;;;;;7.85;1.25;;;16.40;57.70;;;;;;6197807;23;20027;-84
2021/01/09 15:36:12;;;;;;;5.47;0.80;;;16.40;57.20;;;;;;6222575;23;20079;-83
2021/01/09 15:38:40;;;;;;;9.30;1.30;;;16.30;57.00;;;;;;6196928;23;20023;-83
2021/01/09 15:41:18;;;;;;;6.88;1.15;;;16.30;57.70;;;;;;6249063;23;20012;-85
2021/01/09 15:43:44;;;;;;;6.25;0.70;;;16.30;58.10;;;;;;6193921;23;20058;-85
2021/01/09 15:46:14;;;;;;;2.88;0.93;;;16.40;58.30;;;;;;6195983;23;20436;-84
2021/01/09 15:48:41;;;;;;;8.02;1.00;;;16.40;58.40;;;;;;6197382;23;20039;-84
2021/01/09 15:51:09;;;;;;;7.32;0.75;;;16.40;58.40;;;;;;6197596;23;20020;-84
2021/01/09 15:53:37;;;;;;;4.95;0.90;;;16.40;58.30;;;;;;6221267;23;20016;-84
2021/01/09 15:56:10;;;;;;;5.90;1.08;;;16.40;58.30;;;;;;6193474;23;20062;-84
2021/01/09 15:58:37;;;;;;;;;;;16.30;58.20;;;;;;6196736;23;20019;-83
2021/01/09 16:01:11;;;;;;;3.38;0.32;;;16.30;58.70;;;;;;6220320;23;19927;-84
2021/01/09 16:03:37;;;;;;;5.18;1.00;;;16.30;58.10;;;;;;6214932;23;20027;-85
2021/01/09 16:06:14;;;;;;;3.50;0.47;;;16.30;57.90;;;;;;6223338;23;20012;-83
2021/01/09 16:08:47;;;;;;;3.63;0.30;;;16.30;57.70;;;;;;6244243;23;20016;-85
2021/01/09 16:11:26;;;;;;;3.38;0.60;;;16.30;57.60;;;;;;6246618;23;20053;-82
2021/01/09 16:13:53;;;;;;;5.50;0.40;;;16.20;57.80;;;;;;6244687;23;20070;-81
2021/01/09 16:16:44;;;;;;;8.73;0.70;;;16.30;58.20;;;;;;6222199;23;20047;-84
2021/01/09 16:19:22;;;;;;;;;;;16.30;58.30;;;;;;6222899;23;20012;-84
2021/01/09 16:21:47;;;;;;;6.10;0.35;;;16.30;58.20;;;;;;6257881;23;19919;-81
2021/01/09 16:24:13;;;;;;;9.80;0.70;;;16.40;58.70;;;;;;6255612;23;20036;-81
2021/01/09 16:26:39;;;;;;;7.78;0.70;;;16.40;58.70;;;;;;6258804;23;20012;-81
2021/01/09 16:29:14;;;;;;;7.55;0.65;;;16.40;58.60;;;;;;6246386;23;20094;-83
2021/01/09 16:31:50;;;;;;;13.90;0.90;;;16.50;58.50;;;;;;6246214;23;20016;-83
2021/01/09 16:34:19;;;;;;;11.68;0.98;;;16.60;58.80;;;;;;6247211;23;20420;-80
2021/01/09 16:36:55;;;;;;;8.68;0.70;;;16.60;58.90;;;;;;6244483;23;20004;-83
2021/01/09 16:39:23;;;;;;;5.65;0.68;;;16.60;58.80;;;;;;6220340;23;20082;-83
2021/01/09 16:41:52;;;;;;;5.90;0.98;;;16.60;58.70;;;;;;6221328;23;20011;-83
2021/01/09 16:44:21;;;;;;;6.82;0.47;;;16.70;58.50;;;;;;6220673;23;20008;-83
2021/01/09 16:47:48;;;;;;;3.40;0.30;;;16.70;58.30;;;;;;6222074;23;20012;-85
2021/01/09 16:53:45;;;;;;;3.08;0.40;;;16.70;57.90;;;;;;6132538;23;20315;-86
2021/01/09 16:57:22;;;;;;;;;;;;;;;;;;;;;
2021/01/09 17:00:16;;;;;;;4.78;0.50;;;16.70;57.60;;;;;;6098405;23;20400;-84
2021/01/09 17:07:39;;;;;;;4.35;0.52;;;16.70;57.40;;;;;;6126419;23;20371;-85
2021/01/09 17:10:34;;;;;;;4.40;0.40;;;16.70;57.10;;;;;;6199845;22;20016;-84
2021/01/09 17:14:11;;;;;;;5.13;0.55;;;16.80;57.40;;;;;;6126209;23;20101;-84
2021/01/09 17:17:13;;;;;;;4.53;0.43;;;16.80;57.10;;;;;;6251143;22;20011;-83
2021/01/09 17:19:42;;;;;;;7.28;0.68;;;16.80;57.10;;;;;;6225574;22;20007;-85
2021/01/09 17:22:49;;;;;;;7.40;0.60;;;16.80;57.30;;;;;;6228149;22;20345;-85
2021/01/09 17:25:49;;;;;;;6.47;0.70;;;16.70;57.10;;;;;;6174413;22;20012;-84
2021/01/09 17:29:09;;;;;;;7.22;0.55;;;16.90;57.00;;;;;;6217385;22;20008;-85
2021/01/09 17:35:54;;;;;;;3.03;0.32;;;16.90;56.50;;;;;;6197052;23;20008;-84
2021/01/09 17:39:02;;;;;;;3.17;0.47;;;16.90;56.30;;;;;;6125027;22;20012;-84
2021/01/09 17:45:51;;;;;;;2.28;0.30;;;16.90;55.90;;;;;;6242992;22;20038;-84
2021/01/09 17:48:53;;;;;;;1.55;0.30;;;16.80;55.60;;;;;;6223231;22;20004;-83
2021/01/09 17:52:04;;;;;;;4.72;0.50;;;16.80;55.40;;;;;;6218295;22;20110;-84
2021/01/09 17:55:06;;;;;;;2.55;0.30;;;16.80;55.20;;;;;;6254215;22;20011;-85
2021/01/09 17:58:42;;;;;;;2.13;0.30;;;16.80;55.00;;;;;;6254187;22;20356;-84
2021/01/09 18:02:12;;;;;;;1.25;0.30;;;16.70;54.80;;;;;;6199802;22;20016;-84
2021/01/09 18:09:51;;;;;;;;;;;;;;;;;;;;;
2021/01/09 18:12:35;;;;;;;5.13;0.70;;;16.70;54.50;;;;;;6244642;23;20082;-84
2021/01/09 18:19:03;;;;;;;;;;;;;;;;;;;;;
2021/01/09 18:21:51;;;;;;;1.35;0.32;;;16.60;54.30;;;;;;6100792;23;20017;-84
2021/01/09 18:25:17;;;;;;;;;;;;;;;;;;;;;
2021/01/09 18:28:03;;;;;;;2.28;0.40;;;16.60;54.20;;;;;;6121139;23;20065;-86
2021/01/09 18:30:58;;;;;;;2.25;0.52;;;16.60;54.20;;;;;;6197178;23;20335;-84
2021/01/09 18:33:46;;;;;;;4.72;0.40;;;16.50;54.30;;;;;;6196735;23;20301;-87
2021/01/09 18:36:19;;;;;;;6.78;0.60;;;16.50;54.40;;;;;;6249949;23;20012;-83
2021/01/09 18:38:46;;;;;;;;;;;16.50;54.20;;;;;;6223595;23;20007;-83
2021/01/09 18:41:12;;;;;;;5.20;0.70;;;16.40;54.40;;;;;;6198124;23;19927;-83
2021/01/09 18:43:39;;;;;;;5.93;0.77;;;16.40;54.50;;;;;;6197759;23;20267;-84
2021/01/09 18:46:08;;;;;;;3.17;0.45;;;16.50;54.60;;;;;;6197766;23;20463;-85
2021/01/09 18:52:09;;;;;;;3.88;0.40;;;16.50;54.40;;;;;;6248661;23;20024;-83
2021/01/09 18:55:10;;;;;;;3.53;0.45;;;16.40;54.30;;;;;;6197679;23;20012;-84
2021/01/09 18:57:53;;;;;;;3.25;0.35;;;16.40;54.30;;;;;;6198919;23;20075;-83
2021/01/09 19:00:19;;;;;;;3.60;0.45;;;16.40;54.30;;;;;;6196681;23;20321;-84
2021/01/09 19:02:53;;;;;;;1.90;0.30;;;16.30;54.10;;;;;;6197490;23;20008;-85
2021/01/09 19:05:19;;;;;;;4.30;0.70;;;16.30;54.10;;;;;;6214944;23;20094;-83
2021/01/09 19:08:01;;;;;;;2.97;0.40;;;16.30;54.10;;;;;;6225838;23;20008;-83
2021/01/09 19:10:29;;;;;;;1.95;0.20;;;16.30;54.10;;;;;;6247459;23;20075;-83
2021/01/09 19:13:03;;;;;;;;;;;16.30;54.00;;;;;;6248619;23;20008;-85
2021/01/09 19:15:34;;;;;;;1.75;0.30;;;16.30;54.20;;;;;;6223553;23;19921;-84
2021/01/09 19:18:03;;;;;;;3.28;0.60;;;16.20;54.80;;;;;;6223654;23;20343;-83
2021/01/09 19:20:37;;;;;;;1.65;0.30;;;16.20;54.10;;;;;;6221677;23;20020;-83
2021/01/09 19:23:05;;;;;;;2.25;0.40;;;16.20;54.00;;;;;;6219722;23;20014;-85
2021/01/09 19:25:42;;;;;;;2.65;0.30;;;16.20;54.10;;;;;;6222674;23;20472;-85
2021/01/09 19:28:13;;;;;;;2.85;0.55;;;16.20;54.00;;;;;;6222931;23;20020;-83
2021/01/09 19:30:54;;;;;;;4.13;0.60;;;16.20;54.10;;;;;;6222800;23;20031;-86
2021/01/09 19:33:22;;;;;;;2.38;0.52;;;16.20;54.00;;;;;;6247586;23;20304;-85
2021/01/09 19:35:52;;;;;;;1.40;0.35;;;16.20;54.10;;;;;;6223301;23;20023;-84
2021/01/09 19:38:24;;;;;;;1.85;0.50;;;16.10;54.00;;;;;;6221160;23;20409;-83
2021/01/09 19:40:51;;;;;;;1.85;0.28;;;16.10;54.00;;;;;;6195945;23;20008;-85
2021/01/09 19:43:21;;;;;;;1.38;0.30;;;16.10;54.00;;;;;;6195275;23;20039;-85
2021/01/09 19:46:06;;;;;;;1.05;0.30;;;16.10;54.00;;;;;;6198004;23;20047;-85
2021/01/09 19:48:54;;;;;;;4.38;0.40;;;16.10;54.00;;;;;;6198652;23;20004;-83
2021/01/09 19:51:26;;;;;;;3.30;0.40;;;16.10;54.10;;;;;;6196983;23;20004;-84
2021/01/09 19:54:08;;;;;;;9.82;0.82;;;16.10;54.10;;;;;;6196024;23;20451;-83
2021/01/09 19:57:12;;;;;;;6.30;0.40;;;16.10;54.10;;;;;;6196074;23;20366;-85
2021/01/09 19:59:44;;;;;;;3.88;0.40;;;16.10;54.30;;;;;;6222225;23;20428;-84
2021/01/09 20:02:31;;;;;;;3.33;0.52;;;16.10;54.50;;;;;;6223218;23;20401;-84
2021/01/09 20:04:58;;;;;;;2.70;0.47;;;16.10;54.40;;;;;;6196315;23;20019;-85
2021/01/09 20:07:26;;;;;;;2.63;0.57;;;16.10;54.50;;;;;;6195933;23;20417;-83
2021/01/09 20:09:58;;;;;;;2.95;0.73;;;16.10;54.50;;;;;;6239393;23;20008;-85
2021/01/09 20:12:24;;;;;;;2.88;0.57;;;16.10;54.40;;;;;;6222175;23;20095;-84
2021/01/09 20:14:50;;;;;;;5.10;1.35;;;16.10;54.50;;;;;;6248172;23;20028;-82
2021/01/09 20:17:19;;;;;;;4.45;0.70;;;16.00;54.40;;;;;;6222208;23;20013;-84
2021/01/09 20:23:35;;;;;;;5.60;0.60;;;16.00;54.30;;;;;;6236922;23;20042;-85
2021/01/09 20:26:04;;;;;;;3.55;0.77;;;16.00;54.30;;;;;;6222783;23;20027;-84
2021/01/09 20:28:36;;;;;;;4.07;0.90;;;16.00;54.30;;;;;;6222047;23;20298;-85
2021/01/09 20:31:05;;;;;;;3.58;0.68;;;16.00;54.30;;;;;;6222852;23;20012;-84
2021/01/09 20:33:41;;;;;;;4.07;0.70;;;16.00;54.30;;;;;;6221302;23;20294;-84
2021/01/09 20:36:07;;;;;;;3.33;0.68;;;16.00;54.20;;;;;;6222599;23;20008;-84
2021/01/09 20:38:41;;;;;;;3.17;0.90;;;16.00;54.30;;;;;;6221977;23;20078;-85
2021/01/09 20:41:08;;;;;;;3.97;1.08;;;16.00;54.20;;;;;;6222406;23;20030;-84
2021/01/09 20:43:34;;;;;;;5.68;0.95;;;16.00;54.20;;;;;;6221973;23;20039;-84
2021/01/09 20:46:01;;;;;;;5.13;1.10;;;16.00;54.20;;;;;;6257482;23;20072;-83
2021/01/09 20:48:27;;;;;;;3.88;0.98;;;16.00;54.20;;;;;;6248917;23;20079;-84
2021/01/09 20:50:53;;;;;;;4.10;0.90;;;15.90;54.20;;;;;;6222237;23;20027;-83
2021/01/09 20:53:20;;;;;;;4.82;1.25;;;16.00;54.10;;;;;;6221422;23;20344;-86
2021/01/09 20:55:46;;;;;;;3.97;1.10;;;15.90;54.10;;;;;;6222176;23;20012;-84
2021/01/09 20:58:12;;;;;;;3.90;1.13;;;16.00;54.00;;;;;;6221513;23;20008;-82
2021/01/09 21:00:38;;;;;;;4.32;0.90;;;15.90;54.00;;;;;;6222179;23;20095;-83
2021/01/09 21:03:04;;;;;;;5.35;1.40;;;15.90;54.00;;;;;;6247674;23;20059;-83
2021/01/09 21:05:33;;;;;;;4.70;1.08;;;15.80;53.90;;;;;;6248073;23;20019;-84
2021/01/09 21:07:59;;;;;;;3.35;1.10;;;15.90;54.00;;;;;;6222433;23;20031;-83
2021/01/09 21:10:27;;;;;;;3.42;1.08;;;15.80;54.50;;;;;;6221519;23;20008;-84
2021/01/09 21:12:53;;;;;;;4.20;1.10;;;15.80;53.80;;;;;;6221405;23;20016;-84
2021/01/09 21:15:19;;;;;;;3.33;1.20;;;15.80;53.80;;;;;;6221040;23;20008;-85
2021/01/09 21:17:49;;;;;;;5.13;1.30;;;15.80;53.70;;;;;;6222756;23;20401;-84
2021/01/09 21:20:17;;;;;;;4.40;1.17;;;15.80;53.60;;;;;;6221576;23;20305;-85
2021/01/09 21:22:43;;;;;;;4.03;0.85;;;15.80;53.60;;;;;;6221416;23;20351;-84
2021/01/09 21:25:12;;;;;;;4.00;0.98;;;15.80;53.50;;;;;;6246870;23;20015;-85
2021/01/09 21:27:38;;;;;;;3.17;1.25;;;15.80;53.50;;;;;;6222564;23;20321;-84
2021/01/09 21:30:05;;;;;;;4.90;1.33;;;15.80;53.40;;;;;;6246715;23;20019;-83
2021/01/09 21:32:32;;;;;;;3.70;1.35;;;15.80;53.30;;;;;;6221634;23;20008;-82
2021/01/09 21:34:58;;;;;;;4.55;0.90;;;15.70;53.30;;;;;;6220827;23;20012;-84
2021/01/09 21:37:41;;;;;;;4.35;0.90;;;15.70;53.20;;;;;;6247276;23;20073;-83
2021/01/09 21:40:14;;;;;;;4.43;1.20;;;15.70;53.00;;;;;;6221699;23;20028;-85
2021/01/09 21:42:46;;;;;;;3.10;1.08;;;15.70;53.00;;;;;;6221088;23;20008;-87
2021/01/09 21:45:37;;;;;;;4.45;1.33;;;15.60;52.90;;;;;;6219491;23;20016;-86